createdAt,value
2019-05-01T00:00:16.031Z,63.58
2019-05-01T00:03:32.565Z,63.73
2019-05-01T00:06:39.798Z,63.75
2019-05-01T00:09:44.248Z,63.89
2019-05-01T00:12:48.717Z,63.84
2019-05-01T00:15:53.197Z,63.92
2019-05-01T00:18:57.419Z,63.95
2019-05-01T00:22:01.351Z,64.18
2019-05-01T00:25:05.971Z,64.38
2019-05-01T00:28:10.409Z,64.54
2019-05-01T00:31:14.484Z,64.67
2019-05-01T00:34:18.404Z,64.70
2019-05-01T00:37:22.621Z,64.64
2019-05-01T00:40:26.877Z,64.79
2019-05-01T00:43:30.997Z,64.75
2019-05-01T00:46:35.918Z,64.79
2019-05-01T00:49:40.102Z,64.92
2019-05-01T00:52:44.679Z,64.98
2019-05-01T00:55:59.216Z,65.10
2019-05-01T00:59:17.688Z,65.14
2019-05-01T01:02:42.886Z,65.44
2019-05-01T01:05:47.028Z,65.54
2019-05-01T01:08:50.947Z,65.73
2019-05-01T01:11:55.122Z,65.64
2019-05-01T01:14:59.276Z,65.74
2019-05-01T01:18:03.341Z,66.00
2019-05-01T01:21:07.820Z,65.99
2019-05-01T01:24:11.835Z,66.13
2019-05-01T01:27:16.767Z,66.10
2019-05-01T01:30:21.098Z,66.22
2019-05-01T01:33:25.522Z,66.20
2019-05-01T01:36:29.365Z,66.34
2019-05-01T01:39:33.759Z,66.40
2019-05-01T01:42:38.913Z,66.58
2019-05-01T01:45:47.008Z,66.51
2019-05-01T01:48:51.369Z,66.71
2019-05-01T01:51:56.054Z,66.74
2019-05-01T01:55:00.327Z,66.70
2019-05-01T01:58:05.275Z,66.80
2019-05-01T02:01:37.261Z,66.91
2019-05-01T02:04:51.814Z,66.94
2019-05-01T02:07:56.389Z,66.77
2019-05-01T02:11:00.379Z,66.94
2019-05-01T02:14:04.492Z,67.18
2019-05-01T02:17:08.655Z,67.22
2019-05-01T02:20:12.963Z,67.49
2019-05-01T02:23:16.885Z,67.59
2019-05-01T02:26:22.513Z,67.63
2019-05-01T02:29:33.080Z,67.70
2019-05-01T02:32:38.209Z,67.62
2019-05-01T02:35:43.819Z,67.58
2019-05-01T02:38:49.827Z,67.51
2019-05-01T02:41:55.116Z,67.51
2019-05-01T02:45:01.471Z,67.65
2019-05-01T02:48:05.970Z,67.97
2019-05-01T02:51:10.575Z,68.06
2019-05-01T02:54:17.927Z,68.22
2019-05-01T02:57:24.332Z,68.14
2019-05-01T03:00:28.742Z,68.11
2019-05-01T03:03:32.842Z,68.25
2019-05-01T03:06:38.676Z,68.34
2019-05-01T03:09:43.417Z,68.33
2019-05-01T03:12:50.926Z,68.30
2019-05-01T03:15:55.471Z,68.41
2019-05-01T03:19:02.032Z,68.55
2019-05-01T03:22:13.412Z,68.68
2019-05-01T03:25:18.472Z,68.86
2019-05-01T03:28:22.760Z,68.85
2019-05-01T03:31:26.869Z,68.85
2019-05-01T03:34:30.899Z,68.70
2019-05-01T03:37:35.857Z,68.84
2019-05-01T03:40:40.909Z,69.01
2019-05-01T03:43:45.066Z,69.11
2019-05-01T03:46:49.726Z,69.01
2019-05-01T03:49:54.018Z,68.99
2019-05-01T03:52:58.603Z,69.11
2019-05-01T03:56:03.298Z,69.13
2019-05-01T03:59:08.034Z,69.12
2019-05-01T04:02:34.063Z,69.08
2019-05-01T04:05:37.152Z,69.11
2019-05-01T04:08:41.956Z,69.12
2019-05-01T04:11:46.359Z,69.23
2019-05-01T04:14:50.809Z,69.25
2019-05-01T04:17:56.646Z,69.37
2019-05-01T04:21:01.369Z,69.39
2019-05-01T04:24:05.597Z,69.18
2019-05-01T04:27:11.926Z,69.03
2019-05-01T04:30:35.310Z,68.97
2019-05-01T04:33:40.929Z,68.79
2019-05-01T04:36:49.550Z,68.75
2019-05-01T04:39:53.545Z,68.69
2019-05-01T04:42:58.664Z,68.53
2019-05-01T04:46:02.739Z,68.51
2019-05-01T04:49:06.748Z,68.24
2019-05-01T04:52:11.023Z,68.14
2019-05-01T04:55:16.655Z,67.93
2019-05-01T04:58:21.280Z,67.79
2019-05-01T05:01:29.301Z,67.57
2019-05-01T05:04:34.781Z,67.63
2019-05-01T05:07:39.734Z,67.38
2019-05-01T05:10:44.131Z,67.20
2019-05-01T05:14:07.062Z,67.10
2019-05-01T05:17:15.993Z,66.93
2019-05-01T05:20:20.827Z,66.62
2019-05-01T05:23:25.103Z,66.33
2019-05-01T05:26:29.475Z,66.04
2019-05-01T05:29:34.027Z,65.87
2019-05-01T05:32:40.159Z,65.66
2019-05-01T05:35:46.329Z,65.48
2019-05-01T05:39:02.012Z,65.23
2019-05-01T05:42:06.244Z,65.13
2019-05-01T05:45:10.327Z,64.73
2019-05-01T05:48:14.581Z,64.28
2019-05-01T05:51:32.812Z,61.05
2019-05-01T05:54:58.960Z,58.23
2019-05-01T05:58:21.706Z,55.99
2019-05-01T06:01:54.096Z,54.36
2019-05-01T06:05:27.280Z,53.21
2019-05-01T06:08:34.385Z,52.10
2019-05-01T06:11:53.964Z,51.06
2019-05-01T06:15:28.700Z,50.34
2019-05-01T06:18:44.678Z,49.46
2019-05-01T06:22:11.662Z,48.81
2019-05-01T06:25:22.675Z,48.09
2019-05-01T06:28:29.710Z,47.84
2019-05-01T06:31:34.349Z,47.72
2019-05-01T06:34:38.771Z,47.24
2019-05-01T06:38:05.142Z,46.92
2019-05-01T06:41:09.162Z,46.87
2019-05-01T06:44:39.188Z,46.90
2019-05-01T06:47:49.024Z,46.30
2019-05-01T06:51:02.226Z,45.30
2019-05-01T06:54:11.369Z,45.06
2019-05-01T06:57:14.882Z,44.83
2019-05-01T07:00:19.510Z,44.81
2019-05-01T07:03:23.878Z,44.60
2019-05-01T07:06:30.946Z,44.28
2019-05-01T07:09:38.007Z,43.81
2019-05-01T07:12:42.799Z,43.97
2019-05-01T07:15:47.467Z,43.70
2019-05-01T07:18:53.513Z,43.34
2019-05-01T07:22:01.802Z,43.31
2019-05-01T07:25:05.296Z,43.10
2019-05-01T07:28:09.742Z,42.91
2019-05-01T07:31:15.640Z,42.72
2019-05-01T07:34:21.762Z,42.61
2019-05-01T07:37:27.742Z,42.78
2019-05-01T07:40:31.925Z,42.59
2019-05-01T07:44:13.507Z,42.24
2019-05-01T07:47:33.407Z,42.30
2019-05-01T07:50:38.032Z,42.54
2019-05-01T07:53:42.834Z,43.02
2019-05-01T07:56:46.861Z,42.69
2019-05-01T07:59:51.677Z,42.64
2019-05-01T08:02:56.024Z,42.74
2019-05-01T08:06:00.379Z,42.53
2019-05-01T08:09:06.615Z,42.82
2019-05-01T08:12:14.330Z,42.76
2019-05-01T08:15:17.597Z,42.75
2019-05-01T08:18:28.037Z,44.12
2019-05-01T08:21:56.973Z,46.90
2019-05-01T08:25:00.485Z,48.93
2019-05-01T08:28:20.135Z,49.99
2019-05-01T08:31:40.193Z,50.40
2019-05-01T08:34:49.040Z,50.77
2019-05-01T08:37:53.778Z,51.05
2019-05-01T08:40:56.913Z,51.04
2019-05-01T08:44:01.529Z,50.78
2019-05-01T08:47:15.659Z,50.71
2019-05-01T08:50:24.729Z,50.74
2019-05-01T08:53:26.698Z,50.77
2019-05-01T08:56:30.905Z,50.31
2019-05-01T08:59:34.840Z,49.55
2019-05-01T09:02:41.487Z,49.22
2019-05-01T09:05:45.200Z,48.73
2019-05-01T09:08:49.438Z,48.41
2019-05-01T09:11:54.728Z,47.64
2019-05-01T09:14:59.317Z,46.82
2019-05-01T09:18:03.243Z,46.63
2019-05-01T09:21:07.181Z,45.77
2019-05-01T09:24:11.518Z,44.69
2019-05-01T09:27:29.267Z,44.10
2019-05-01T09:30:36.734Z,43.96
2019-05-01T09:33:40.894Z,43.82
2019-05-01T09:36:44.901Z,43.55
2019-05-01T09:39:49.418Z,43.63
2019-05-01T09:42:54.743Z,42.81
2019-05-01T09:45:59.518Z,42.81
2019-05-01T09:49:03.783Z,41.95
2019-05-01T09:52:30.677Z,41.61
2019-05-01T09:55:48.502Z,40.78
2019-05-01T09:58:52.657Z,40.52
2019-05-01T10:01:56.678Z,39.72
2019-05-01T10:05:02.113Z,39.62
2019-05-01T10:08:06.945Z,39.48
2019-05-01T10:11:11.486Z,39.44
2019-05-01T10:14:15.703Z,39.20
2019-05-01T10:17:20.226Z,38.93
2019-05-01T10:20:24.253Z,38.75
2019-05-01T10:23:28.562Z,37.99
2019-05-01T10:26:34.413Z,37.61
2019-05-01T10:30:05.371Z,37.01
2019-05-01T10:33:14.819Z,36.72
2019-05-01T10:36:38.316Z,36.94
2019-05-01T10:39:42.176Z,37.70
2019-05-01T10:42:46.643Z,38.53
2019-05-01T10:45:50.844Z,38.53
2019-05-01T10:48:57.347Z,38.76
2019-05-01T10:52:13.662Z,37.66
2019-05-01T10:55:07.970Z,37.66
2019-05-01T10:58:12.683Z,36.23
2019-05-01T11:01:23.929Z,35.86
2019-05-01T11:04:28.449Z,35.86
2019-05-01T11:07:33.002Z,35.45
2019-05-01T11:10:36.841Z,35.00
2019-05-01T11:13:41.014Z,34.67
2019-05-01T11:16:44.855Z,34.94
2019-05-01T11:19:48.840Z,34.51
2019-05-01T11:22:52.866Z,33.67
2019-05-01T11:25:57.067Z,33.14
2019-05-01T11:29:01.483Z,32.69
2019-05-01T11:32:16.800Z,32.44
2019-05-01T11:35:43.324Z,31.80
2019-05-01T11:38:55.677Z,31.32
2019-05-01T11:42:04.240Z,31.27
2019-05-01T11:45:09.405Z,30.86
2019-05-01T11:48:13.636Z,30.32
2019-05-01T11:51:17.555Z,30.06
2019-05-01T11:54:21.484Z,29.76
2019-05-01T11:57:25.406Z,29.49
2019-05-01T12:00:29.411Z,29.38
2019-05-01T12:03:33.304Z,29.50
2019-05-01T12:06:37.819Z,29.42
2019-05-01T12:09:42.164Z,29.05
2019-05-01T12:12:46.461Z,28.83
2019-05-01T12:15:57.963Z,28.98
2019-05-01T12:19:02.064Z,28.87
2019-05-01T12:22:06.059Z,28.47
2019-05-01T12:25:10.309Z,28.83
2019-05-01T12:28:14.246Z,28.49
2019-05-01T12:31:18.480Z,27.96
2019-05-01T12:34:23.065Z,27.67
2019-05-01T12:37:32.793Z,27.80
2019-05-01T12:40:36.792Z,27.95
2019-05-01T12:43:40.735Z,27.73
2019-05-01T12:46:50.382Z,28.05
2019-05-01T12:49:54.717Z,28.33
2019-05-01T12:53:22.260Z,28.52
2019-05-01T12:56:35.133Z,28.69
2019-05-01T12:59:39.367Z,28.14
2019-05-01T13:02:43.576Z,27.52
2019-05-01T13:05:48.080Z,27.34
2019-05-01T13:08:52.169Z,27.21
2019-05-01T13:11:56.516Z,26.83
2019-05-01T13:15:00.364Z,26.85
2019-05-01T13:18:04.414Z,26.74
2019-05-01T13:21:08.558Z,26.76
2019-05-01T13:24:12.887Z,26.80
2019-05-01T13:27:21.879Z,26.80
2019-05-01T13:30:57.031Z,26.30
2019-05-01T13:34:00.970Z,26.07
2019-05-01T13:37:05.194Z,26.74
2019-05-01T13:40:10.185Z,27.08
2019-05-01T13:43:14.288Z,27.91
2019-05-01T13:46:18.568Z,27.27
2019-05-01T13:49:22.488Z,26.73
2019-05-01T13:52:27.222Z,26.98
2019-05-01T13:55:31.135Z,26.53
2019-05-01T13:58:35.245Z,26.11
2019-05-01T14:01:39.290Z,25.46
2019-05-01T14:04:43.893Z,25.54
2019-05-01T14:07:48.129Z,25.00
2019-05-01T14:10:52.316Z,24.78
2019-05-01T14:13:56.506Z,24.59
2019-05-01T14:17:00.964Z,24.22
2019-05-01T14:20:21.766Z,24.46
2019-05-01T14:24:00.190Z,24.62
2019-05-01T14:27:04.374Z,24.95
2019-05-01T14:30:11.606Z,25.06
2019-05-01T14:33:16.384Z,25.45
2019-05-01T14:36:20.376Z,25.39
2019-05-01T14:39:25.151Z,25.95
2019-05-01T14:42:29.158Z,26.55
2019-05-01T14:45:33.436Z,27.03
2019-05-01T14:48:37.363Z,27.30
2019-05-01T14:51:41.676Z,27.48
2019-05-01T14:54:46.017Z,27.71
2019-05-01T14:57:49.872Z,27.91
2019-05-01T15:00:54.231Z,27.93
2019-05-01T15:03:58.353Z,27.77
2019-05-01T15:07:02.785Z,27.74
2019-05-01T15:10:07.095Z,27.79
2019-05-01T15:13:26.882Z,28.04
2019-05-01T15:16:52.916Z,27.93
2019-05-01T15:20:01.793Z,27.79
2019-05-01T15:23:05.841Z,27.70
2019-05-01T15:26:10.199Z,28.25
2019-05-01T15:29:14.217Z,28.54
2019-05-01T15:32:18.125Z,28.17
2019-05-01T15:35:22.121Z,28.16
2019-05-01T15:38:26.347Z,28.34
2019-05-01T15:41:52.683Z,28.47
2019-05-01T15:44:57.252Z,28.59
2019-05-01T15:48:01.413Z,28.89
2019-05-01T15:51:05.814Z,29.35
2019-05-01T15:54:12.332Z,29.43
2019-05-01T15:57:16.870Z,29.42
2019-05-01T16:00:21.352Z,29.83
2019-05-01T16:03:25.607Z,30.18
2019-05-01T16:06:29.447Z,31.31
2019-05-01T16:09:33.498Z,31.79
2019-05-01T16:12:49.129Z,32.31
2019-05-01T16:15:53.648Z,33.06
2019-05-01T16:18:57.969Z,33.44
2019-05-01T16:22:01.928Z,33.60
2019-05-01T16:25:06.622Z,34.76
2019-05-01T16:28:10.551Z,35.43
2019-05-01T16:31:14.475Z,35.92
2019-05-01T16:34:18.665Z,36.28
2019-05-01T16:37:22.713Z,37.02
2019-05-01T16:40:36.858Z,37.85
2019-05-01T16:43:40.955Z,37.88
2019-05-01T16:46:45.158Z,37.68
2019-05-01T16:49:49.655Z,37.41
2019-05-01T16:52:53.922Z,37.50
2019-05-01T16:55:58.305Z,37.83
2019-05-01T16:59:02.215Z,38.17
2019-05-01T17:02:24.336Z,38.58
2019-05-01T17:05:52.657Z,38.96
2019-05-01T17:08:59.734Z,39.11
2019-05-01T17:12:03.784Z,39.42
2019-05-01T17:15:08.233Z,39.56
2019-05-01T17:18:12.840Z,40.24
2019-05-01T17:21:16.763Z,41.92
2019-05-01T17:24:21.118Z,42.95
2019-05-01T17:27:24.996Z,43.35
2019-05-01T17:30:41.597Z,43.32
2019-05-01T17:33:45.835Z,43.13
2019-05-01T17:36:49.847Z,43.11
2019-05-01T17:39:53.831Z,43.29
2019-05-01T17:42:57.870Z,43.65
2019-05-01T17:46:05.884Z,43.50
2019-05-01T17:49:09.274Z,43.66
2019-05-01T17:52:14.024Z,44.03
2019-05-01T17:55:18.264Z,44.70
2019-05-01T17:58:22.356Z,45.05
2019-05-01T18:01:44.474Z,44.92
2019-05-01T18:04:53.542Z,45.41
2019-05-01T18:07:57.455Z,46.07
2019-05-01T18:11:02.064Z,46.07
2019-05-01T18:14:06.202Z,47.07
2019-05-01T18:17:10.496Z,47.07
2019-05-01T18:20:14.684Z,47.50
2019-05-01T18:23:37.225Z,47.82
2019-05-01T18:27:06.360Z,48.47
2019-05-01T18:30:15.838Z,48.74
2019-05-01T18:33:22.042Z,49.00
2019-05-01T18:36:32.014Z,49.44
2019-05-01T18:39:38.094Z,49.84
2019-05-01T18:42:42.738Z,50.40
2019-05-01T18:45:55.004Z,50.76
2019-05-01T18:48:59.304Z,51.45
2019-05-01T18:52:03.900Z,51.69
2019-05-01T18:55:08.196Z,52.14
2019-05-01T18:58:12.750Z,52.65
2019-05-01T19:01:17.175Z,53.52
2019-05-01T19:04:23.552Z,53.87
2019-05-01T19:07:27.644Z,53.93
2019-05-01T19:10:31.638Z,54.36
2019-05-01T19:13:35.643Z,54.96
2019-05-01T19:16:44.631Z,55.39
2019-05-01T19:19:45.555Z,55.97
2019-05-01T19:22:49.514Z,56.23
2019-05-01T19:25:56.329Z,56.33
2019-05-01T19:28:59.800Z,56.39
2019-05-01T19:32:04.349Z,56.58
2019-05-01T19:35:09.161Z,56.66
2019-05-01T19:38:13.441Z,56.54
2019-05-01T19:41:17.406Z,56.44
2019-05-01T19:44:21.756Z,56.96
2019-05-01T19:47:26.058Z,57.40
2019-05-01T19:50:30.434Z,57.75
2019-05-01T19:53:35.063Z,58.01
2019-05-01T19:56:39.440Z,57.91
2019-05-01T19:59:44.073Z,57.75
2019-05-01T20:02:48.338Z,57.52
2019-05-01T20:05:52.811Z,57.29
2019-05-01T20:08:57.212Z,57.19
2019-05-01T20:12:01.409Z,57.11
2019-05-01T20:15:06.245Z,57.04
2019-05-01T20:18:10.668Z,57.22
2019-05-01T20:21:15.200Z,57.26
2019-05-01T20:24:19.620Z,57.29
2019-05-01T20:27:23.729Z,57.31
2019-05-01T20:30:28.111Z,57.35
2019-05-01T20:33:33.293Z,57.43
2019-05-01T20:36:38.156Z,57.53
2019-05-01T20:39:42.361Z,57.69
2019-05-01T20:42:46.275Z,57.78
2019-05-01T20:45:51.315Z,57.92
2019-05-01T20:48:55.973Z,58.09
2019-05-01T20:52:01.173Z,58.27
2019-05-01T20:55:05.404Z,58.40
2019-05-01T20:58:16.258Z,58.51
2019-05-01T21:01:24.226Z,58.60
2019-05-01T21:04:46.473Z,58.63
2019-05-01T21:07:58.320Z,58.79
2019-05-01T21:11:11.249Z,58.94
2019-05-01T21:14:20.035Z,59.13
2019-05-01T21:17:18.423Z,59.24
2019-05-01T21:20:23.552Z,59.46
2019-05-01T21:23:27.562Z,59.74
2019-05-01T21:26:33.556Z,59.84
2019-05-01T21:29:38.668Z,60.06
2019-05-01T21:32:44.342Z,60.20
2019-05-01T21:35:49.125Z,60.19
2019-05-01T21:38:53.051Z,60.22
2019-05-01T21:41:56.968Z,60.42
2019-05-01T21:45:01.268Z,60.53
2019-05-01T21:48:05.364Z,60.66
2019-05-01T21:51:09.500Z,60.76
2019-05-01T21:54:16.145Z,60.92
2019-05-01T21:57:19.295Z,61.01
2019-05-01T22:00:24.868Z,61.08
2019-05-01T22:03:29.841Z,61.14
2019-05-01T22:06:34.395Z,61.35
2019-05-01T22:09:38.668Z,61.53
2019-05-01T22:12:43.827Z,61.78
2019-05-01T22:15:53.959Z,61.87
2019-05-01T22:19:06.401Z,62.00
2019-05-01T22:22:19.821Z,61.98
2019-05-01T22:25:28.409Z,62.10
2019-05-01T22:28:42.286Z,62.13
2019-05-01T22:32:08.343Z,62.41
2019-05-01T22:35:16.863Z,62.58
2019-05-01T22:38:21.223Z,62.50
2019-05-01T22:41:25.085Z,62.67
2019-05-01T22:44:29.021Z,62.83
2019-05-01T22:47:33.360Z,63.08
2019-05-01T22:50:37.723Z,63.24
2019-05-01T22:53:42.005Z,63.36
2019-05-01T22:56:45.927Z,63.52
2019-05-01T22:59:49.888Z,63.55
2019-05-01T23:02:54.769Z,63.59
2019-05-01T23:06:01.976Z,63.75
2019-05-01T23:09:09.032Z,63.71
2019-05-01T23:12:13.267Z,63.97
2019-05-01T23:15:22.080Z,64.10
2019-05-01T23:18:26.334Z,64.30
2019-05-01T23:21:30.846Z,64.32
2019-05-01T23:24:35.164Z,64.42
2019-05-01T23:34:56.765Z,64.70
2019-05-01T23:38:01.030Z,64.62
2019-05-01T23:41:05.371Z,64.66
2019-05-01T23:44:09.315Z,64.83
2019-05-01T23:47:13.261Z,64.88
2019-05-01T23:50:17.862Z,65.11
2019-05-01T23:53:22.634Z,65.16
2019-05-01T23:56:31.120Z,65.21
2019-05-01T23:59:33.138Z,65.37
